sensor_id;sensor_type;location;lat;lon;timestamp;temperature;humidity
9640;DHT22;51745;50.872;4.732;2023-06-22T00:00:36;20.30;99.90
9640;DHT22;51745;50.872;4.732;2023-06-22T00:03:26;20.00;99.90
9640;DHT22;51745;50.872;4.732;2023-06-22T00:06:16;20.00;99.90
9640;DHT22;51745;50.872;4.732;2023-06-22T00:09:04;20.10;99.90
9640;DHT22;51745;50.872;4.732;2023-06-22T00:11:53;20.00;99.90
9640;DHT22;51745;50.872;4.732;2023-06-22T00:14:42;20.10;99.90
9640;DHT22;51745;50.872;4.732;2023-06-22T00:17:29;20.00;99.90
9640;DHT22;51745;50.872;4.732;2023-06-22T00:20:17;19.90;99.90
9640;DHT22;51745;50.872;4.732;2023-06-22T00:23:07;20.00;99.90
9640;DHT22;51745;50.872;4.732;2023-06-22T00:25:55;20.00;99.90
9640;DHT22;51745;50.872;4.732;2023-06-22T00:28:43;19.90;99.90
9640;DHT22;51745;50.872;4.732;2023-06-22T00:31:31;19.80;99.90
9640;DHT22;51745;50.872;4.732;2023-06-22T00:34:19;19.80;99.90
9640;DHT22;51745;50.872;4.732;2023-06-22T00:37:06;19.70;99.90
9640;DHT22;51745;50.872;4.732;2023-06-22T00:39:56;19.80;99.90
9640;DHT22;51745;50.872;4.732;2023-06-22T00:42:44;19.90;99.90
9640;DHT22;51745;50.872;4.732;2023-06-22T00:45:32;19.70;99.90
9640;DHT22;51745;50.872;4.732;2023-06-22T00:48:20;19.30;99.90
9640;DHT22;51745;50.872;4.732;2023-06-22T00:51:08;19.50;99.90
9640;DHT22;51745;50.872;4.732;2023-06-22T00:53:57;19.40;99.90
9640;DHT22;51745;50.872;4.732;2023-06-22T00:56:46;19.40;99.90
9640;DHT22;51745;50.872;4.732;2023-06-22T00:59:34;19.30;99.90
9640;DHT22;51745;50.872;4.732;2023-06-22T01:02:22;19.10;99.90
9640;DHT22;51745;50.872;4.732;2023-06-22T01:05:10;19.20;99.90
9640;DHT22;51745;50.872;4.732;2023-06-22T01:08:07;19.50;99.90
9640;DHT22;51745;50.872;4.732;2023-06-22T01:11:00;19.10;99.90
9640;DHT22;51745;50.872;4.732;2023-06-22T01:13:54;19.20;99.90
9640;DHT22;51745;50.872;4.732;2023-06-22T01:16:45;18.50;99.90
9640;DHT22;51745;50.872;4.732;2023-06-22T01:19:35;19.30;99.90
9640;DHT22;51745;50.872;4.732;2023-06-22T01:22:26;19.30;99.90
9640;DHT22;51745;50.872;4.732;2023-06-22T01:25:19;19.30;99.90
9640;DHT22;51745;50.872;4.732;2023-06-22T01:28:10;19.30;99.90
9640;DHT22;51745;50.872;4.732;2023-06-22T01:31:05;19.30;99.90
9640;DHT22;51745;50.872;4.732;2023-06-22T01:33:55;19.40;99.90
9640;DHT22;51745;50.872;4.732;2023-06-22T01:36:44;19.40;99.90
9640;DHT22;51745;50.872;4.732;2023-06-22T01:39:32;19.40;99.90
9640;DHT22;51745;50.872;4.732;2023-06-22T01:42:20;19.20;99.90
9640;DHT22;51745;50.872;4.732;2023-06-22T01:45:08;19.30;99.90
9640;DHT22;51745;50.872;4.732;2023-06-22T01:47:58;19.20;99.90
9640;DHT22;51745;50.872;4.732;2023-06-22T01:50:47;19.20;99.90
9640;DHT22;51745;50.872;4.732;2023-06-22T01:53:36;20.40;99.90
9640;DHT22;51745;50.872;4.732;2023-06-22T01:56:24;19.10;99.90
9640;DHT22;51745;50.872;4.732;2023-06-22T01:59:15;19.00;99.90
9640;DHT22;51745;50.872;4.732;2023-06-22T02:02:06;19.00;99.90
9640;DHT22;51745;50.872;4.732;2023-06-22T02:04:56;19.00;99.90
9640;DHT22;51745;50.872;4.732;2023-06-22T02:07:46;19.00;99.90
9640;DHT22;51745;50.872;4.732;2023-06-22T02:10:34;19.00;99.90
9640;DHT22;51745;50.872;4.732;2023-06-22T02:13:23;19.00;99.90
9640;DHT22;51745;50.872;4.732;2023-06-22T02:16:12;18.90;99.90
9640;DHT22;51745;50.872;4.732;2023-06-22T02:19:00;18.90;99.90
9640;DHT22;51745;50.872;4.732;2023-06-22T02:21:54;19.00;99.90
9640;DHT22;51745;50.872;4.732;2023-06-22T02:24:42;18.80;99.90
9640;DHT22;51745;50.872;4.732;2023-06-22T02:27:29;18.80;99.90
9640;DHT22;51745;50.872;4.732;2023-06-22T02:30:17;18.80;99.90
9640;DHT22;51745;50.872;4.732;2023-06-22T02:33:04;18.80;99.90
9640;DHT22;51745;50.872;4.732;2023-06-22T02:35:52;18.90;99.90
9640;DHT22;51745;50.872;4.732;2023-06-22T02:38:43;18.90;99.90
9640;DHT22;51745;50.872;4.732;2023-06-22T02:41:34;18.80;99.90
9640;DHT22;51745;50.872;4.732;2023-06-22T02:44:22;18.80;99.90
9640;DHT22;51745;50.872;4.732;2023-06-22T02:47:10;19.00;99.90
9640;DHT22;51745;50.872;4.732;2023-06-22T02:49:59;18.80;99.90
9640;DHT22;51745;50.872;4.732;2023-06-22T02:52:51;18.90;99.90
9640;DHT22;51745;50.872;4.732;2023-06-22T02:55:40;18.90;99.90
9640;DHT22;51745;50.872;4.732;2023-06-22T02:58:28;18.90;99.90
9640;DHT22;51745;50.872;4.732;2023-06-22T03:01:16;18.90;99.90
9640;DHT22;51745;50.872;4.732;2023-06-22T03:04:09;18.80;99.90
9640;DHT22;51745;50.872;4.732;2023-06-22T03:06:57;18.80;99.90
9640;DHT22;51745;50.872;4.732;2023-06-22T03:09:49;18.70;99.90
9640;DHT22;51745;50.872;4.732;2023-06-22T03:12:39;18.60;99.90
9640;DHT22;51745;50.872;4.732;2023-06-22T03:15:27;18.70;99.90
9640;DHT22;51745;50.872;4.732;2023-06-22T03:18:17;18.70;99.90
9640;DHT22;51745;50.872;4.732;2023-06-22T03:21:05;18.70;99.90
9640;DHT22;51745;50.872;4.732;2023-06-22T03:23:52;18.70;99.90
9640;DHT22;51745;50.872;4.732;2023-06-22T03:26:40;19.70;99.90
9640;DHT22;51745;50.872;4.732;2023-06-22T03:29:29;18.70;99.90
9640;DHT22;51745;50.872;4.732;2023-06-22T03:32:18;18.70;99.90
9640;DHT22;51745;50.872;4.732;2023-06-22T03:35:06;18.70;99.90
9640;DHT22;51745;50.872;4.732;2023-06-22T03:37:55;18.80;99.90
9640;DHT22;51745;50.872;4.732;2023-06-22T03:40:43;18.60;99.90
9640;DHT22;51745;50.872;4.732;2023-06-22T03:43:32;18.70;99.90
9640;DHT22;51745;50.872;4.732;2023-06-22T03:46:23;19.50;99.90
9640;DHT22;51745;50.872;4.732;2023-06-22T03:49:11;18.70;99.90
9640;DHT22;51745;50.872;4.732;2023-06-22T03:51:59;18.60;99.90
9640;DHT22;51745;50.872;4.732;2023-06-22T03:54:47;18.60;99.90
9640;DHT22;51745;50.872;4.732;2023-06-22T03:57:35;18.70;99.90
9640;DHT22;51745;50.872;4.732;2023-06-22T04:00:22;18.60;99.90
9640;DHT22;51745;50.872;4.732;2023-06-22T04:03:12;18.60;99.90
9640;DHT22;51745;50.872;4.732;2023-06-22T04:06:00;17.80;99.90
9640;DHT22;51745;50.872;4.732;2023-06-22T04:08:48;18.70;99.90
9640;DHT22;51745;50.872;4.732;2023-06-22T04:11:38;18.70;99.90
9640;DHT22;51745;50.872;4.732;2023-06-22T04:14:26;18.70;99.90
9640;DHT22;51745;50.872;4.732;2023-06-22T04:17:14;18.70;99.90
9640;DHT22;51745;50.872;4.732;2023-06-22T04:20:04;18.60;99.90
9640;DHT22;51745;50.872;4.732;2023-06-22T04:22:53;18.40;99.90
9640;DHT22;51745;50.872;4.732;2023-06-22T04:25:41;18.60;99.90
9640;DHT22;51745;50.872;4.732;2023-06-22T04:28:29;18.50;99.90
9640;DHT22;51745;50.872;4.732;2023-06-22T04:31:21;18.60;99.90
9640;DHT22;51745;50.872;4.732;2023-06-22T04:34:18;18.60;99.90
9640;DHT22;51745;50.872;4.732;2023-06-22T04:37:08;18.70;99.90
9640;DHT22;51745;50.872;4.732;2023-06-22T04:40:04;18.60;99.90
9640;DHT22;51745;50.872;4.732;2023-06-22T04:42:53;18.50;99.90
9640;DHT22;51745;50.872;4.732;2023-06-22T04:45:41;18.40;99.90
9640;DHT22;51745;50.872;4.732;2023-06-22T04:48:29;18.60;99.90
9640;DHT22;51745;50.872;4.732;2023-06-22T04:51:19;18.60;99.90
9640;DHT22;51745;50.872;4.732;2023-06-22T04:54:09;18.20;99.90
9640;DHT22;51745;50.872;4.732;2023-06-22T04:56:57;18.60;99.90
9640;DHT22;51745;50.872;4.732;2023-06-22T04:59:46;18.60;99.90
9640;DHT22;51745;50.872;4.732;2023-06-22T05:02:35;18.60;99.90
9640;DHT22;51745;50.872;4.732;2023-06-22T05:05:25;18.70;99.90
9640;DHT22;51745;50.872;4.732;2023-06-22T05:08:13;18.70;99.90
9640;DHT22;51745;50.872;4.732;2023-06-22T05:11:03;18.80;99.90
9640;DHT22;51745;50.872;4.732;2023-06-22T05:13:51;18.70;99.90
9640;DHT22;51745;50.872;4.732;2023-06-22T05:16:40;18.90;99.90
9640;DHT22;51745;50.872;4.732;2023-06-22T05:19:29;19.00;99.90
9640;DHT22;51745;50.872;4.732;2023-06-22T05:22:20;19.00;99.90
9640;DHT22;51745;50.872;4.732;2023-06-22T05:25:09;19.00;99.90
9640;DHT22;51745;50.872;4.732;2023-06-22T05:27:58;19.10;99.90
9640;DHT22;51745;50.872;4.732;2023-06-22T05:30:46;19.20;99.90
9640;DHT22;51745;50.872;4.732;2023-06-22T05:33:37;19.20;99.90
9640;DHT22;51745;50.872;4.732;2023-06-22T05:36:26;19.20;99.90
9640;DHT22;51745;50.872;4.732;2023-06-22T05:39:13;19.20;99.90
9640;DHT22;51745;50.872;4.732;2023-06-22T05:42:01;19.20;99.90
9640;DHT22;51745;50.872;4.732;2023-06-22T05:44:51;19.20;99.90
9640;DHT22;51745;50.872;4.732;2023-06-22T05:47:39;19.20;99.90
9640;DHT22;51745;50.872;4.732;2023-06-22T05:50:27;19.20;99.90
9640;DHT22;51745;50.872;4.732;2023-06-22T05:53:17;19.10;99.90
9640;DHT22;51745;50.872;4.732;2023-06-22T05:56:05;19.00;99.90
9640;DHT22;51745;50.872;4.732;2023-06-22T05:58:54;19.00;99.90
9640;DHT22;51745;50.872;4.732;2023-06-22T06:01:45;19.00;99.90
9640;DHT22;51745;50.872;4.732;2023-06-22T06:04:36;19.20;99.90
9640;DHT22;51745;50.872;4.732;2023-06-22T06:07:32;19.00;99.90
9640;DHT22;51745;50.872;4.732;2023-06-22T06:10:21;19.00;99.90
9640;DHT22;51745;50.872;4.732;2023-06-22T06:13:09;19.10;99.90
9640;DHT22;51745;50.872;4.732;2023-06-22T06:15:57;19.10;99.90
9640;DHT22;51745;50.872;4.732;2023-06-22T06:18:47;19.10;99.90
9640;DHT22;51745;50.872;4.732;2023-06-22T06:21:39;19.10;99.90
9640;DHT22;51745;50.872;4.732;2023-06-22T06:24:29;19.00;99.90
9640;DHT22;51745;50.872;4.732;2023-06-22T06:27:17;19.10;99.90
9640;DHT22;51745;50.872;4.732;2023-06-22T06:30:06;19.30;99.90
9640;DHT22;51745;50.872;4.732;2023-06-22T06:32:56;19.20;99.90
9640;DHT22;51745;50.872;4.732;2023-06-22T06:35:49;19.20;99.90
9640;DHT22;51745;50.872;4.732;2023-06-22T06:38:38;19.10;99.90
9640;DHT22;51745;50.872;4.732;2023-06-22T06:41:26;19.20;99.90
9640;DHT22;51745;50.872;4.732;2023-06-22T06:44:13;19.30;99.90
9640;DHT22;51745;50.872;4.732;2023-06-22T06:47:02;19.70;99.90
9640;DHT22;51745;50.872;4.732;2023-06-22T06:49:51;19.60;99.90
9640;DHT22;51745;50.872;4.732;2023-06-22T06:52:47;19.70;99.90
9640;DHT22;51745;50.872;4.732;2023-06-22T06:55:37;19.70;99.90
9640;DHT22;51745;50.872;4.732;2023-06-22T06:58:25;19.80;99.90
9640;DHT22;51745;50.872;4.732;2023-06-22T07:01:19;19.80;99.90
9640;DHT22;51745;50.872;4.732;2023-06-22T07:04:12;19.90;99.90
9640;DHT22;51745;50.872;4.732;2023-06-22T07:07:01;20.00;99.90
9640;DHT22;51745;50.872;4.732;2023-06-22T07:09:53;20.00;99.90
9640;DHT22;51745;50.872;4.732;2023-06-22T07:12:43;20.30;99.90
9640;DHT22;51745;50.872;4.732;2023-06-22T07:15:31;20.00;99.90
9640;DHT22;51745;50.872;4.732;2023-06-22T07:18:19;20.00;99.90
9640;DHT22;51745;50.872;4.732;2023-06-22T07:21:09;20.10;99.90
9640;DHT22;51745;50.872;4.732;2023-06-22T07:23:56;20.60;99.90
9640;DHT22;51745;50.872;4.732;2023-06-22T07:26:47;19.90;99.90
9640;DHT22;51745;50.872;4.732;2023-06-22T07:29:36;20.10;99.90
9640;DHT22;51745;50.872;4.732;2023-06-22T07:32:29;20.20;99.90
9640;DHT22;51745;50.872;4.732;2023-06-22T07:35:26;20.60;99.90
9640;DHT22;51745;50.872;4.732;2023-06-22T07:38:15;20.40;99.90
9640;DHT22;51745;50.872;4.732;2023-06-22T07:41:06;20.40;99.90
9640;DHT22;51745;50.872;4.732;2023-06-22T07:43:57;20.30;99.90
9640;DHT22;51745;50.872;4.732;2023-06-22T07:46:45;20.30;99.90
9640;DHT22;51745;50.872;4.732;2023-06-22T07:49:35;20.30;99.90
9640;DHT22;51745;50.872;4.732;2023-06-22T07:52:32;19.60;99.90
9640;DHT22;51745;50.872;4.732;2023-06-22T07:55:20;20.50;99.90
9640;DHT22;51745;50.872;4.732;2023-06-22T07:58:08;20.10;99.90
9640;DHT22;51745;50.872;4.732;2023-06-22T08:01:00;19.30;99.90
9640;DHT22;51745;50.872;4.732;2023-06-22T08:03:52;20.20;99.90
9640;DHT22;51745;50.872;4.732;2023-06-22T08:06:41;20.10;99.90
9640;DHT22;51745;50.872;4.732;2023-06-22T08:09:31;20.10;99.90
9640;DHT22;51745;50.872;4.732;2023-06-22T08:12:21;20.10;99.90
9640;DHT22;51745;50.872;4.732;2023-06-22T08:15:12;20.10;99.90
9640;DHT22;51745;50.872;4.732;2023-06-22T08:18:03;19.70;99.90
9640;DHT22;51745;50.872;4.732;2023-06-22T08:20:53;20.00;99.90
9640;DHT22;51745;50.872;4.732;2023-06-22T08:23:45;20.00;99.90
9640;DHT22;51745;50.872;4.732;2023-06-22T08:26:36;20.30;99.90
9640;DHT22;51745;50.872;4.732;2023-06-22T08:29:24;19.60;99.90
9640;DHT22;51745;50.872;4.732;2023-06-22T08:32:11;20.00;99.90
9640;DHT22;51745;50.872;4.732;2023-06-22T08:35:02;20.00;99.90
9640;DHT22;51745;50.872;4.732;2023-06-22T08:37:50;20.00;99.90
9640;DHT22;51745;50.872;4.732;2023-06-22T08:40:40;20.00;99.90
9640;DHT22;51745;50.872;4.732;2023-06-22T08:43:37;19.80;99.90
9640;DHT22;51745;50.872;4.732;2023-06-22T08:46:25;20.00;99.90
9640;DHT22;51745;50.872;4.732;2023-06-22T08:49:16;20.10;99.90
9640;DHT22;51745;50.872;4.732;2023-06-22T08:52:07;20.10;99.90
9640;DHT22;51745;50.872;4.732;2023-06-22T08:54:55;20.10;99.90
9640;DHT22;51745;50.872;4.732;2023-06-22T08:57:44;20.50;99.90
9640;DHT22;51745;50.872;4.732;2023-06-22T09:00:34;20.20;99.90
9640;DHT22;51745;50.872;4.732;2023-06-22T09:03:24;20.30;99.90
9640;DHT22;51745;50.872;4.732;2023-06-22T09:06:13;20.30;99.90
9640;DHT22;51745;50.872;4.732;2023-06-22T09:09:03;20.30;99.90
9640;DHT22;51745;50.872;4.732;2023-06-22T09:11:51;20.30;99.90
9640;DHT22;51745;50.872;4.732;2023-06-22T09:14:39;20.30;99.90
9640;DHT22;51745;50.872;4.732;2023-06-22T09:17:28;18.50;99.90
9640;DHT22;51745;50.872;4.732;2023-06-22T09:20:16;20.30;99.90
9640;DHT22;51745;50.872;4.732;2023-06-22T09:23:04;19.60;99.90
9640;DHT22;51745;50.872;4.732;2023-06-22T09:25:57;20.20;99.90
9640;DHT22;51745;50.872;4.732;2023-06-22T09:28:48;21.00;99.90
9640;DHT22;51745;50.872;4.732;2023-06-22T09:31:37;20.10;99.90
9640;DHT22;51745;50.872;4.732;2023-06-22T09:34:25;19.90;99.90
9640;DHT22;51745;50.872;4.732;2023-06-22T09:37:14;20.00;99.90
9640;DHT22;51745;50.872;4.732;2023-06-22T09:40:02;19.90;99.90
9640;DHT22;51745;50.872;4.732;2023-06-22T09:42:56;19.80;99.90
9640;DHT22;51745;50.872;4.732;2023-06-22T09:45:58;18.70;99.90
9640;DHT22;51745;50.872;4.732;2023-06-22T09:49:02;19.40;99.90
9640;DHT22;51745;50.872;4.732;2023-06-22T09:51:53;20.40;99.90
9640;DHT22;51745;50.872;4.732;2023-06-22T09:54:41;18.20;99.90
9640;DHT22;51745;50.872;4.732;2023-06-22T09:57:31;18.30;99.90
9640;DHT22;51745;50.872;4.732;2023-06-22T10:00:24;18.00;99.90
9640;DHT22;51745;50.872;4.732;2023-06-22T10:03:53;17.50;99.90
9640;DHT22;51745;50.872;4.732;2023-06-22T10:10:41;17.40;99.90
9640;DHT22;51745;50.872;4.732;2023-06-22T10:13:35;17.40;99.90
9640;DHT22;51745;50.872;4.732;2023-06-22T10:16:33;19.10;99.90
9640;DHT22;51745;50.872;4.732;2023-06-22T10:19:31;20.90;99.90
9640;DHT22;51745;50.872;4.732;2023-06-22T10:22:20;17.40;99.90
9640;DHT22;51745;50.872;4.732;2023-06-22T10:25:09;15.90;99.90
9640;DHT22;51745;50.872;4.732;2023-06-22T10:28:05;17.40;99.90
9640;DHT22;51745;50.872;4.732;2023-06-22T10:30:57;17.70;99.90
9640;DHT22;51745;50.872;4.732;2023-06-22T10:33:47;17.30;99.90
9640;DHT22;51745;50.872;4.732;2023-06-22T10:36:35;17.20;99.90
9640;DHT22;51745;50.872;4.732;2023-06-22T10:39:23;17.30;99.90
9640;DHT22;51745;50.872;4.732;2023-06-22T10:42:13;19.10;99.90
9640;DHT22;51745;50.872;4.732;2023-06-22T10:45:01;16.60;99.90
9640;DHT22;51745;50.872;4.732;2023-06-22T10:47:49;17.10;99.90
9640;DHT22;51745;50.872;4.732;2023-06-22T10:50:48;17.50;99.90
9640;DHT22;51745;50.872;4.732;2023-06-22T10:53:36;17.10;99.90
9640;DHT22;51745;50.872;4.732;2023-06-22T10:56:24;17.10;99.90
9640;DHT22;51745;50.872;4.732;2023-06-22T10:59:13;17.10;99.90
9640;DHT22;51745;50.872;4.732;2023-06-22T11:02:01;17.10;99.90
9640;DHT22;51745;50.872;4.732;2023-06-22T11:04:50;17.00;99.90
9640;DHT22;51745;50.872;4.732;2023-06-22T11:07:42;17.00;99.90
9640;DHT22;51745;50.872;4.732;2023-06-22T11:10:33;17.20;99.90
9640;DHT22;51745;50.872;4.732;2023-06-22T11:13:25;16.80;99.90
9640;DHT22;51745;50.872;4.732;2023-06-22T11:16:14;17.10;99.90
9640;DHT22;51745;50.872;4.732;2023-06-22T11:19:05;17.10;99.90
9640;DHT22;51745;50.872;4.732;2023-06-22T11:21:57;17.10;99.90
9640;DHT22;51745;50.872;4.732;2023-06-22T11:24:47;17.20;99.90
9640;DHT22;51745;50.872;4.732;2023-06-22T11:27:37;18.00;99.90
9640;DHT22;51745;50.872;4.732;2023-06-22T11:30:28;17.10;99.90
9640;DHT22;51745;50.872;4.732;2023-06-22T11:33:20;18.20;99.90
9640;DHT22;51745;50.872;4.732;2023-06-22T11:36:14;17.30;99.90
9640;DHT22;51745;50.872;4.732;2023-06-22T11:39:10;17.30;99.90
9640;DHT22;51745;50.872;4.732;2023-06-22T11:42:04;17.10;99.90
9640;DHT22;51745;50.872;4.732;2023-06-22T11:44:56;17.50;99.90
9640;DHT22;51745;50.872;4.732;2023-06-22T11:47:45;17.50;99.90
9640;DHT22;51745;50.872;4.732;2023-06-22T11:50:35;17.90;99.90
9640;DHT22;51745;50.872;4.732;2023-06-22T11:53:24;17.60;99.90
9640;DHT22;51745;50.872;4.732;2023-06-22T11:56:13;17.20;99.90
9640;DHT22;51745;50.872;4.732;2023-06-22T11:59:07;17.60;99.90
9640;DHT22;51745;50.872;4.732;2023-06-22T12:01:59;17.20;99.90
9640;DHT22;51745;50.872;4.732;2023-06-22T12:04:47;18.10;99.90
9640;DHT22;51745;50.872;4.732;2023-06-22T12:07:35;17.30;99.90
9640;DHT22;51745;50.872;4.732;2023-06-22T12:10:25;17.30;99.90
9640;DHT22;51745;50.872;4.732;2023-06-22T12:13:17;17.30;99.90
9640;DHT22;51745;50.872;4.732;2023-06-22T12:16:11;17.30;99.90
9640;DHT22;51745;50.872;4.732;2023-06-22T12:19:02;17.40;99.90
9640;DHT22;51745;50.872;4.732;2023-06-22T12:21:55;17.40;99.90
9640;DHT22;51745;50.872;4.732;2023-06-22T12:24:44;17.40;99.90
9640;DHT22;51745;50.872;4.732;2023-06-22T12:27:32;17.50;99.90
9640;DHT22;51745;50.872;4.732;2023-06-22T12:30:20;17.40;99.90
9640;DHT22;51745;50.872;4.732;2023-06-22T12:33:12;17.40;99.90
9640;DHT22;51745;50.872;4.732;2023-06-22T12:36:07;17.80;99.90
9640;DHT22;51745;50.872;4.732;2023-06-22T12:39:08;17.30;99.90
9640;DHT22;51745;50.872;4.732;2023-06-22T12:42:02;16.70;99.90
9640;DHT22;51745;50.872;4.732;2023-06-22T12:44:52;18.10;99.90
9640;DHT22;51745;50.872;4.732;2023-06-22T12:47:41;18.00;99.90
9640;DHT22;51745;50.872;4.732;2023-06-22T12:50:37;17.40;99.90
9640;DHT22;51745;50.872;4.732;2023-06-22T12:53:27;17.80;99.90
9640;DHT22;51745;50.872;4.732;2023-06-22T12:56:20;15.60;99.90
9640;DHT22;51745;50.872;4.732;2023-06-22T12:59:10;19.80;99.90
9640;DHT22;51745;50.872;4.732;2023-06-22T13:02:06;17.40;99.90
9640;DHT22;51745;50.872;4.732;2023-06-22T13:04:55;17.40;99.90
9640;DHT22;51745;50.872;4.732;2023-06-22T13:07:48;17.40;99.90
9640;DHT22;51745;50.872;4.732;2023-06-22T13:10:44;17.40;99.90
9640;DHT22;51745;50.872;4.732;2023-06-22T13:13:32;17.60;99.90
9640;DHT22;51745;50.872;4.732;2023-06-22T13:16:21;18.20;99.90
9640;DHT22;51745;50.872;4.732;2023-06-22T13:19:09;17.50;99.90
9640;DHT22;51745;50.872;4.732;2023-06-22T13:22:03;16.40;99.90
9640;DHT22;51745;50.872;4.732;2023-06-22T13:24:59;17.40;99.90
9640;DHT22;51745;50.872;4.732;2023-06-22T13:27:47;18.50;99.90
9640;DHT22;51745;50.872;4.732;2023-06-22T13:30:37;17.40;99.90
9640;DHT22;51745;50.872;4.732;2023-06-22T13:33:28;17.40;99.90
9640;DHT22;51745;50.872;4.732;2023-06-22T13:36:17;17.40;99.90
9640;DHT22;51745;50.872;4.732;2023-06-22T13:39:06;16.90;99.90
9640;DHT22;51745;50.872;4.732;2023-06-22T13:41:58;17.30;99.90
9640;DHT22;51745;50.872;4.732;2023-06-22T13:44:47;17.50;99.90
9640;DHT22;51745;50.872;4.732;2023-06-22T13:47:34;17.50;99.90
9640;DHT22;51745;50.872;4.732;2023-06-22T13:50:25;17.50;99.90
9640;DHT22;51745;50.872;4.732;2023-06-22T13:53:20;17.50;99.90
9640;DHT22;51745;50.872;4.732;2023-06-22T13:56:08;17.50;99.90
9640;DHT22;51745;50.872;4.732;2023-06-22T13:59:00;17.50;99.90
9640;DHT22;51745;50.872;4.732;2023-06-22T14:01:52;17.20;99.90
9640;DHT22;51745;50.872;4.732;2023-06-22T14:04:40;17.50;99.90
9640;DHT22;51745;50.872;4.732;2023-06-22T14:07:29;17.60;99.90
9640;DHT22;51745;50.872;4.732;2023-06-22T14:10:17;17.30;99.90
9640;DHT22;51745;50.872;4.732;2023-06-22T14:13:15;17.50;99.90
9640;DHT22;51745;50.872;4.732;2023-06-22T14:16:08;17.50;99.90
9640;DHT22;51745;50.872;4.732;2023-06-22T14:18:59;17.50;99.90
9640;DHT22;51745;50.872;4.732;2023-06-22T14:21:50;17.50;99.90
9640;DHT22;51745;50.872;4.732;2023-06-22T14:24:38;17.50;99.90
9640;DHT22;51745;50.872;4.732;2023-06-22T14:27:40;17.50;99.90
9640;DHT22;51745;50.872;4.732;2023-06-22T14:30:29;16.80;99.90
9640;DHT22;51745;50.872;4.732;2023-06-22T14:33:24;17.50;99.90
9640;DHT22;51745;50.872;4.732;2023-06-22T14:36:16;18.20;99.90
9640;DHT22;51745;50.872;4.732;2023-06-22T14:39:11;18.40;99.90
9640;DHT22;51745;50.872;4.732;2023-06-22T14:42:08;17.40;99.90
9640;DHT22;51745;50.872;4.732;2023-06-22T14:44:58;17.40;99.90
9640;DHT22;51745;50.872;4.732;2023-06-22T14:47:54;17.60;99.90
9640;DHT22;51745;50.872;4.732;2023-06-22T14:50:46;17.40;99.90
9640;DHT22;51745;50.872;4.732;2023-06-22T14:53:43;17.50;99.90
9640;DHT22;51745;50.872;4.732;2023-06-22T14:56:31;17.40;99.90
9640;DHT22;51745;50.872;4.732;2023-06-22T14:59:20;18.60;99.90
9640;DHT22;51745;50.872;4.732;2023-06-22T15:02:08;17.30;99.90
9640;DHT22;51745;50.872;4.732;2023-06-22T15:04:56;17.50;99.90
9640;DHT22;51745;50.872;4.732;2023-06-22T15:07:47;17.50;99.90
9640;DHT22;51745;50.872;4.732;2023-06-22T15:10:36;17.50;99.90
9640;DHT22;51745;50.872;4.732;2023-06-22T15:13:26;17.50;99.90
9640;DHT22;51745;50.872;4.732;2023-06-22T15:16:15;17.60;99.90
9640;DHT22;51745;50.872;4.732;2023-06-22T15:19:04;17.60;99.90
9640;DHT22;51745;50.872;4.732;2023-06-22T15:21:53;17.90;99.90
9640;DHT22;51745;50.872;4.732;2023-06-22T15:24:43;17.60;99.90
9640;DHT22;51745;50.872;4.732;2023-06-22T15:27:44;18.40;99.90
9640;DHT22;51745;50.872;4.732;2023-06-22T15:30:32;17.70;99.90
9640;DHT22;51745;50.872;4.732;2023-06-22T15:33:25;17.70;99.90
9640;DHT22;51745;50.872;4.732;2023-06-22T15:36:13;17.80;99.90
9640;DHT22;51745;50.872;4.732;2023-06-22T15:39:05;17.90;99.90
9640;DHT22;51745;50.872;4.732;2023-06-22T15:41:56;17.90;99.90
9640;DHT22;51745;50.872;4.732;2023-06-22T15:44:46;17.90;99.90
9640;DHT22;51745;50.872;4.732;2023-06-22T15:47:35;17.90;99.90
9640;DHT22;51745;50.872;4.732;2023-06-22T15:50:42;18.00;99.90
9640;DHT22;51745;50.872;4.732;2023-06-22T15:53:33;17.50;99.90
9640;DHT22;51745;50.872;4.732;2023-06-22T15:56:27;18.40;99.90
9640;DHT22;51745;50.872;4.732;2023-06-22T15:59:16;17.90;99.90
9640;DHT22;51745;50.872;4.732;2023-06-22T16:02:05;18.00;99.90
9640;DHT22;51745;50.872;4.732;2023-06-22T16:04:57;17.80;99.90
9640;DHT22;51745;50.872;4.732;2023-06-22T16:07:49;17.90;99.90
9640;DHT22;51745;50.872;4.732;2023-06-22T16:10:37;17.90;99.90
9640;DHT22;51745;50.872;4.732;2023-06-22T16:13:28;20.00;99.90
9640;DHT22;51745;50.872;4.732;2023-06-22T16:16:24;17.80;99.90
9640;DHT22;51745;50.872;4.732;2023-06-22T16:19:20;19.90;99.90
9640;DHT22;51745;50.872;4.732;2023-06-22T16:22:08;17.80;99.90
9640;DHT22;51745;50.872;4.732;2023-06-22T16:24:57;17.90;99.90
9640;DHT22;51745;50.872;4.732;2023-06-22T16:27:45;18.00;99.90
9640;DHT22;51745;50.872;4.732;2023-06-22T16:30:33;18.00;99.90
9640;DHT22;51745;50.872;4.732;2023-06-22T16:33:22;17.90;99.90
9640;DHT22;51745;50.872;4.732;2023-06-22T16:36:13;18.00;99.90
9640;DHT22;51745;50.872;4.732;2023-06-22T16:39:01;20.20;99.90
9640;DHT22;51745;50.872;4.732;2023-06-22T16:41:51;18.00;99.90
9640;DHT22;51745;50.872;4.732;2023-06-22T16:44:39;18.00;99.90
9640;DHT22;51745;50.872;4.732;2023-06-22T16:47:27;17.50;99.90
9640;DHT22;51745;50.872;4.732;2023-06-22T16:50:17;17.70;99.90
9640;DHT22;51745;50.872;4.732;2023-06-22T16:53:06;18.00;99.90
9640;DHT22;51745;50.872;4.732;2023-06-22T16:55:53;18.00;99.90
9640;DHT22;51745;50.872;4.732;2023-06-22T16:58:41;18.00;99.90
9640;DHT22;51745;50.872;4.732;2023-06-22T17:01:34;18.00;99.90
9640;DHT22;51745;50.872;4.732;2023-06-22T17:04:24;18.00;99.90
9640;DHT22;51745;50.872;4.732;2023-06-22T17:07:20;18.00;99.90
9640;DHT22;51745;50.872;4.732;2023-06-22T17:10:08;18.30;99.90
9640;DHT22;51745;50.872;4.732;2023-06-22T17:12:56;17.90;99.90
9640;DHT22;51745;50.872;4.732;2023-06-22T17:15:45;17.90;99.90
9640;DHT22;51745;50.872;4.732;2023-06-22T17:18:35;17.80;99.90
9640;DHT22;51745;50.872;4.732;2023-06-22T17:21:28;17.80;99.90
9640;DHT22;51745;50.872;4.732;2023-06-22T17:24:17;17.80;99.90
9640;DHT22;51745;50.872;4.732;2023-06-22T17:27:06;18.20;99.90
9640;DHT22;51745;50.872;4.732;2023-06-22T17:30:02;17.80;99.90
9640;DHT22;51745;50.872;4.732;2023-06-22T17:32:51;17.90;99.90
9640;DHT22;51745;50.872;4.732;2023-06-22T17:35:45;17.40;99.90
9640;DHT22;51745;50.872;4.732;2023-06-22T17:38:36;18.10;99.90
9640;DHT22;51745;50.872;4.732;2023-06-22T17:41:32;18.90;99.90
9640;DHT22;51745;50.872;4.732;2023-06-22T17:44:20;18.10;99.90
9640;DHT22;51745;50.872;4.732;2023-06-22T17:50:16;19.00;99.90
9640;DHT22;51745;50.872;4.732;2023-06-22T17:53:08;18.10;99.90
9640;DHT22;51745;50.872;4.732;2023-06-22T17:55:59;18.10;99.90
9640;DHT22;51745;50.872;4.732;2023-06-22T17:58:52;17.80;99.90
9640;DHT22;51745;50.872;4.732;2023-06-22T18:01:40;18.10;99.90
9640;DHT22;51745;50.872;4.732;2023-06-22T18:04:31;18.10;99.90
9640;DHT22;51745;50.872;4.732;2023-06-22T18:07:23;18.10;99.90
9640;DHT22;51745;50.872;4.732;2023-06-22T18:10:13;18.10;99.90
9640;DHT22;51745;50.872;4.732;2023-06-22T18:13:01;18.10;99.90
9640;DHT22;51745;50.872;4.732;2023-06-22T18:15:55;15.90;99.90
9640;DHT22;51745;50.872;4.732;2023-06-22T18:18:44;16.70;99.90